Time;durP1;ratioP1;P1;durP2;ratioP2;P2;SDS_P1;SDS_P2;PMS_P1;PMS_P2;Temp;Humidity;BMP_temperature;BMP_pressure;BME280_temperature;BME280_humidity;BME280_pressure;Samples;Min_cycle;Max_cycle;Signal;HPM_P1;HPM_P2
2023/01/18 00:01:18;;;;;;;8.00;6.18;;;17.50;61.80;;;;;;5031182;28;20205;-62
2023/01/18 00:04:07;;;;;;;6.80;4.82;;;17.50;62.00;;;;;;5032600;28;20201;-63
2023/01/18 00:06:56;;;;;;;7.30;5.28;;;17.40;62.20;;;;;;5031397;28;20206;-65
2023/01/18 00:09:44;;;;;;;4.97;4.47;;;17.40;62.60;;;;;;5032526;28;20756;-61
2023/01/18 00:12:33;;;;;;;5.82;4.10;;;17.40;65.60;;;;;;5031507;28;20230;-61
2023/01/18 00:15:21;;;;;;;6.10;5.03;;;17.40;66.80;;;;;;5032529;28;20201;-61
2023/01/18 00:18:09;;;;;;;4.85;4.13;;;18.40;66.80;;;;;;5032025;28;20799;-60
2023/01/18 00:21:01;;;;;;;5.30;4.60;;;17.80;66.10;;;;;;5031052;28;20252;-65
2023/01/18 00:23:50;;;;;;;6.22;4.22;;;17.80;65.90;;;;;;5030158;28;20201;-62
2023/01/18 00:26:38;;;;;;;6.15;4.28;;;17.90;65.50;;;;;;5030822;28;20674;-63
2023/01/18 00:29:26;;;;;;;5.13;4.63;;;18.00;65.60;;;;;;5030197;28;20325;-63
2023/01/18 00:32:15;;;;;;;5.00;4.50;;;18.00;65.20;;;;;;5031763;28;20570;-62
2023/01/18 00:35:06;;;;;;;5.50;4.20;;;18.20;65.00;;;;;;5031380;28;20202;-61
2023/01/18 00:37:55;;;;;;;5.72;4.13;;;18.20;62.40;;;;;;5030780;28;20316;-63
2023/01/18 00:40:44;;;;;;;5.00;3.90;;;18.10;61.50;;;;;;5030710;28;20670;-61
2023/01/18 00:43:38;;;;;;;4.40;3.72;;;18.20;62.00;;;;;;5030599;28;20752;-63
2023/01/18 00:46:27;;;;;;;5.60;4.38;;;18.10;61.70;;;;;;5030737;28;20206;-61
2023/01/18 00:49:15;;;;;;;5.47;4.18;;;18.00;60.90;;;;;;5030700;28;20668;-62
2023/01/18 00:52:03;;;;;;;6.82;4.55;;;18.00;61.60;;;;;;5030428;28;20257;-64
2023/01/18 00:54:52;;;;;;;4.85;4.20;;;18.00;60.90;;;;;;5031692;28;20748;-61
2023/01/18 00:57:40;;;;;;;6.50;4.38;;;18.00;61.00;;;;;;5030963;28;20304;-61
2023/01/18 01:00:28;;;;;;;4.47;3.95;;;17.90;61.20;;;;;;5030963;28;20730;-61
2023/01/18 01:03:16;;;;;;;5.00;4.30;;;17.90;61.10;;;;;;5030926;28;20205;-64
2023/01/18 01:09:11;;;;;;;5.50;4.47;;;17.80;61.00;;;;;;5030629;28;20304;-67
2023/01/18 01:27:32;;;;;;;4.57;4.13;;;17.40;66.50;;;;;;5030604;28;20677;-61
2023/01/18 01:30:20;;;;;;;4.57;3.83;;;17.40;61.70;;;;;;5030628;28;20359;-62
2023/01/18 01:33:08;;;;;;;4.10;3.65;;;17.40;61.90;;;;;;5030748;28;20281;-61
2023/01/18 01:35:57;;;;;;;4.97;4.13;;;17.30;62.50;;;;;;5030355;28;20202;-62
2023/01/18 01:38:45;;;;;;;5.30;3.30;;;17.40;62.70;;;;;;5031268;28;20222;-62
2023/01/18 01:41:35;;;;;;;6.35;4.60;;;17.30;63.10;;;;;;5033367;28;20336;-64
2023/01/18 01:44:48;;;;;;;4.07;3.42;;;17.30;62.60;;;;;;5033023;28;20285;-62
2023/01/18 01:47:41;;;;;;;3.80;3.50;;;17.20;62.40;;;;;;5034390;28;20743;-63
2023/01/18 01:50:34;;;;;;;4.00;3.22;;;17.20;62.00;;;;;;5033704;28;20214;-64
2023/01/18 01:53:22;;;;;;;4.88;3.65;;;17.20;65.10;;;;;;5034202;28;20281;-64
2023/01/18 01:56:12;;;;;;;3.60;3.30;;;17.20;65.80;;;;;;5033711;28;20283;-66
2023/01/18 01:59:02;;;;;;;5.47;4.25;;;17.40;65.80;;;;;;5033836;28;20776;-62
2023/01/18 02:01:51;;;;;;;3.97;3.60;;;17.50;65.70;;;;;;5034309;28;20281;-62
2023/01/18 02:04:43;;;;;;;5.00;4.03;;;17.60;65.40;;;;;;5034760;28;20198;-61
2023/01/18 02:07:33;;;;;;;3.90;3.45;;;17.50;70.20;;;;;;5033740;28;20213;-62
2023/01/18 02:10:21;;;;;;;4.35;3.95;;;17.70;65.00;;;;;;5033032;28;20222;-61
2023/01/18 02:13:10;;;;;;;7.38;3.50;;;17.80;64.30;;;;;;5033862;28;20706;-64
2023/01/18 02:16:08;;;;;;;5.22;3.90;;;17.80;64.20;;;;;;5033261;28;20280;-62
2023/01/18 02:19:07;;;;;;;5.30;4.07;;;17.80;63.20;;;;;;5034242;28;20308;-62
2023/01/18 02:21:58;;;;;;;5.22;3.97;;;17.70;62.40;;;;;;5033682;28;20695;-61
2023/01/18 02:25:15;;;;;;;5.03;3.80;;;17.70;62.90;;;;;;5034347;28;20824;-62
2023/01/18 02:28:09;;;;;;;5.22;3.65;;;17.60;62.60;;;;;;5033444;28;20249;-63
2023/01/18 02:31:07;;;;;;;5.68;3.60;;;17.60;62.90;;;;;;5035786;28;20222;-63
2023/01/18 02:34:03;;;;;;;4.68;3.50;;;17.60;61.80;;;;;;5030008;28;20202;-61
2023/01/18 02:37:02;;;;;;;4.47;3.60;;;17.60;63.70;;;;;;5033532;28;20206;-61
2023/01/18 02:40:00;;;;;;;4.47;3.60;;;17.50;63.10;;;;;;5033167;28;20198;-65
2023/01/18 02:49:08;;;;;;;5.28;3.38;;;17.50;63.00;;;;;;5033614;28;20304;-61
2023/01/18 02:52:00;;;;;;;3.95;3.65;;;17.50;63.20;;;;;;5032522;28;20233;-62
2023/01/18 02:54:49;;;;;;;4.13;3.72;;;17.50;63.50;;;;;;5032995;28;20320;-61
2023/01/18 02:57:37;;;;;;;3.90;3.30;;;17.40;62.80;;;;;;5033177;28;20608;-61
2023/01/18 03:00:26;;;;;;;6.65;3.92;;;17.40;62.30;;;;;;5032701;28;20551;-60
2023/01/18 03:03:19;;;;;;;3.17;2.88;;;17.40;62.40;;;;;;5032723;28;20212;-62
2023/01/18 03:06:08;;;;;;;3.15;2.95;;;17.30;62.00;;;;;;5033415;28;20198;-60
2023/01/18 03:08:58;;;;;;;3.72;3.42;;;17.30;62.50;;;;;;5031627;28;20331;-64
2023/01/18 03:11:54;;;;;;;4.65;3.28;;;17.30;64.00;;;;;;5032186;28;20194;-62
2023/01/18 03:14:52;;;;;;;4.25;3.22;;;17.20;65.70;;;;;;5033310;28;20217;-62
2023/01/18 03:17:43;;;;;;;4.40;2.78;;;17.30;65.70;;;;;;5032369;28;20308;-63
2023/01/18 03:20:39;;;;;;;3.35;3.05;;;17.50;65.80;;;;;;5033277;28;20214;-63
2023/01/18 03:23:40;;;;;;;3.17;2.70;;;17.60;65.50;;;;;;5032423;28;20281;-64
2023/01/18 03:26:29;;;;;;;3.63;2.95;;;17.60;65.40;;;;;;5032999;28;20696;-61
2023/01/18 03:35:33;;;;;;;3.10;2.80;;;17.80;64.70;;;;;;5032809;28;20285;-62
2023/01/18 03:38:22;;;;;;;3.58;3.28;;;17.90;64.50;;;;;;5031817;28;20287;-60
2023/01/18 03:41:12;;;;;;;4.10;3.70;;;18.00;64.50;;;;;;5032467;28;20198;-61
2023/01/18 03:44:06;;;;;;;5.10;2.92;;;17.80;68.30;;;;;;5031563;28;20284;-64
2023/01/18 03:46:56;;;;;;;3.42;2.88;;;17.90;63.00;;;;;;5031506;28;20278;-62
2023/01/18 03:49:44;;;;;;;3.45;3.00;;;17.90;64.30;;;;;;5032391;28;20252;-63
2023/01/18 03:52:40;;;;;;;3.03;2.70;;;18.00;64.30;;;;;;5031508;28;20224;-63
2023/01/18 03:55:37;;;;;;;3.17;2.85;;;18.00;63.90;;;;;;5031971;28;20763;-62
2023/01/18 03:58:32;;;;;;;5.68;2.90;;;17.90;64.10;;;;;;5031187;28;20306;-61
2023/01/18 04:01:21;;;;;;;3.17;2.97;;;17.90;63.00;;;;;;5031917;28;20206;-65
2023/01/18 04:04:09;;;;;;;3.83;3.38;;;17.80;61.80;;;;;;5031101;28;20281;-64
2023/01/18 04:06:57;;;;;;;3.75;3.25;;;17.80;62.30;;;;;;5031486;28;20227;-61
2023/01/18 04:09:47;;;;;;;3.20;2.90;;;17.70;61.70;;;;;;5031777;28;20702;-63
2023/01/18 04:12:35;;;;;;;3.92;2.70;;;17.70;61.70;;;;;;5031757;28;20681;-65
2023/01/18 04:15:23;;;;;;;5.13;2.67;;;17.70;61.90;;;;;;5031112;28;20285;-63
2023/01/18 04:18:11;;;;;;;3.50;2.60;;;17.50;61.70;;;;;;5030967;28;20245;-62
2023/01/18 04:20:59;;;;;;;3.08;2.83;;;17.50;61.70;;;;;;5031399;28;20280;-62
2023/01/18 04:23:47;;;;;;;4.07;2.92;;;17.40;62.00;;;;;;5031623;28;20277;-62
2023/01/18 04:26:37;;;;;;;2.88;2.60;;;17.40;62.90;;;;;;5031613;28;20719;-63
2023/01/18 04:29:25;;;;;;;3.45;2.70;;;17.30;62.50;;;;;;5031507;28;20300;-61
2023/01/18 04:32:13;;;;;;;3.47;3.00;;;17.20;62.30;;;;;;5030700;28;20611;-63
2023/01/18 04:35:01;;;;;;;3.35;2.60;;;17.20;62.60;;;;;;5031333;28;20201;-64
2023/01/18 04:37:51;;;;;;;4.70;3.13;;;17.20;62.50;;;;;;5030622;28;20316;-65
2023/01/18 04:40:39;;;;;;;2.78;2.55;;;17.10;64.00;;;;;;5029965;28;20729;-64
2023/01/18 04:43:29;;;;;;;2.67;2.47;;;17.10;63.90;;;;;;5030768;28;20206;-64
2023/01/18 04:46:17;;;;;;;3.22;2.92;;;17.10;63.90;;;;;;5031378;28;20602;-64
2023/01/18 04:49:07;;;;;;;5.53;3.38;;;17.20;64.70;;;;;;5031268;28;20601;-61
2023/01/18 04:51:55;;;;;;;3.28;2.97;;;17.10;64.80;;;;;;5030917;28;20344;-61
2023/01/18 04:54:43;;;;;;;3.10;2.72;;;17.10;65.00;;;;;;5032322;28;20281;-65
2023/01/18 04:57:31;;;;;;;2.60;2.40;;;17.10;72.30;;;;;;5032561;28;20281;-63
2023/01/18 05:00:22;;;;;;;5.38;3.20;;;17.20;65.80;;;;;;5033354;28;20280;-62
2023/01/18 05:03:12;;;;;;;4.88;2.92;;;17.20;65.60;;;;;;5032925;28;20294;-63
2023/01/18 05:06:00;;;;;;;2.92;2.72;;;17.30;65.40;;;;;;5031517;28;20194;-64
2023/01/18 05:08:48;;;;;;;3.40;2.75;;;17.30;64.40;;;;;;5030302;28;20236;-64
2023/01/18 05:11:36;;;;;;;4.05;3.47;;;17.30;63.70;;;;;;5030679;28;20300;-61
2023/01/18 05:14:24;;;;;;;2.80;2.60;;;17.40;63.90;;;;;;5031235;28;20285;-64
2023/01/18 05:17:14;;;;;;;3.20;2.90;;;17.20;63.10;;;;;;5035084;28;20288;-64
2023/01/18 05:20:03;;;;;;;3.53;2.47;;;17.20;63.80;;;;;;5034770;28;20277;-63
2023/01/18 05:22:51;;;;;;;5.05;3.10;;;17.20;63.10;;;;;;5034587;28;20332;-63
2023/01/18 05:25:39;;;;;;;4.00;3.42;;;17.20;63.90;;;;;;5034548;28;20220;-61
2023/01/18 05:28:28;;;;;;;3.30;2.90;;;17.20;63.10;;;;;;5034106;28;20222;-61
2023/01/18 05:31:19;;;;;;;3.40;3.10;;;17.20;62.50;;;;;;5033691;28;20295;-64
2023/01/18 05:34:09;;;;;;;4.22;2.88;;;17.10;64.40;;;;;;5034834;28;20229;-64
2023/01/18 05:36:57;;;;;;;2.85;2.60;;;17.10;64.00;;;;;;5035169;28;20281;-65
2023/01/18 05:39:46;;;;;;;3.17;2.88;;;17.10;63.50;;;;;;5035291;28;20198;-64
2023/01/18 05:42:34;;;;;;;2.85;2.55;;;17.10;64.30;;;;;;5033800;28;20195;-61
2023/01/18 05:45:22;;;;;;;5.30;2.97;;;17.10;64.20;;;;;;5034350;28;20690;-64
2023/01/18 05:48:10;;;;;;;3.90;2.55;;;17.20;63.80;;;;;;5034419;28;20229;-63
2023/01/18 05:51:00;;;;;;;5.18;2.75;;;17.10;63.60;;;;;;5034420;28;20337;-61
2023/01/18 05:53:48;;;;;;;2.63;2.42;;;17.00;64.00;;;;;;5034033;28;20323;-62
2023/01/18 05:56:36;;;;;;;2.70;2.50;;;17.00;63.50;;;;;;5034117;28;20646;-62
2023/01/18 05:59:24;;;;;;;4.38;2.47;;;17.00;64.30;;;;;;5033036;28;20228;-65
2023/01/18 06:02:12;;;;;;;3.17;2.65;;;17.00;65.80;;;;;;5033851;28;20282;-62
2023/01/18 06:05:00;;;;;;;2.78;2.33;;;17.00;66.10;;;;;;5034555;28;20206;-61
2023/01/18 06:07:49;;;;;;;2.92;2.58;;;17.40;72.20;;;;;;5033404;28;20331;-63
2023/01/18 06:10:37;;;;;;;4.20;2.70;;;17.20;66.10;;;;;;5034271;28;20243;-62
2023/01/18 06:13:28;;;;;;;3.05;2.80;;;17.30;65.90;;;;;;5033428;28;20663;-62
2023/01/18 06:16:16;;;;;;;2.88;2.55;;;17.40;65.80;;;;;;5034387;28;20194;-62
2023/01/18 06:19:04;;;;;;;2.45;2.28;;;17.50;65.60;;;;;;5032902;28;20229;-61
2023/01/18 06:21:53;;;;;;;2.92;2.63;;;17.60;65.50;;;;;;5033758;28;20208;-61
2023/01/18 06:24:42;;;;;;;4.57;3.20;;;17.60;65.30;;;;;;5034302;28;20681;-62
2023/01/18 06:27:30;;;;;;;4.15;2.70;;;17.70;70.80;;;;;;5032010;28;20413;-63
2023/01/18 06:30:19;;;;;;;4.00;2.80;;;17.70;65.00;;;;;;5033401;28;20620;-61
2023/01/18 06:33:07;;;;;;;9.15;4.57;;;17.70;64.70;;;;;;5033602;28;20222;-61
2023/01/18 06:35:55;;;;;;;9.50;3.83;;;17.80;64.00;;;;;;5032628;28;20194;-61
2023/01/18 06:38:43;;;;;;;9.43;3.78;;;17.80;63.60;;;;;;5028461;28;20676;-62
2023/01/18 06:41:33;;;;;;;8.85;2.80;;;17.80;64.60;;;;;;5026577;28;20190;-65
2023/01/18 06:44:21;;;;;;;6.72;3.65;;;17.80;64.70;;;;;;5033365;28;20734;-62
2023/01/18 06:47:09;;;;;;;3.05;2.70;;;17.80;64.70;;;;;;5033179;28;20253;-61
2023/01/18 06:49:57;;;;;;;8.85;3.72;;;17.90;64.70;;;;;;5032428;28;20194;-62
2023/01/18 06:52:45;;;;;;;11.43;3.55;;;17.80;64.20;;;;;;5020228;28;20236;-61
2023/01/18 06:55:34;;;;;;;6.75;3.75;;;17.70;63.40;;;;;;5018818;28;20289;-62
2023/01/18 06:58:24;;;;;;;181.98;34.97;;;17.70;63.10;;;;;;5031488;28;20218;-63
2023/01/18 07:01:12;;;;;;;97.43;17.90;;;17.60;63.00;;;;;;5031667;28;20555;-61
2023/01/18 07:04:00;;;;;;;49.00;12.48;;;17.50;62.70;;;;;;5032856;28;20284;-65
2023/01/18 07:06:49;;;;;;;45.95;10.02;;;17.50;62.60;;;;;;5032535;28;20263;-61
2023/01/18 07:09:37;;;;;;;36.65;9.55;;;17.40;62.90;;;;;;5031697;28;20230;-61
2023/01/18 07:12:25;;;;;;;18.60;5.78;;;17.30;62.50;;;;;;5030128;28;20220;-65
2023/01/18 07:15:16;;;;;;;21.08;6.10;;;17.40;63.00;;;;;;5031542;28;20690;-62
2023/01/18 07:18:09;;;;;;;18.17;5.13;;;17.30;62.80;;;;;;5031377;28;20284;-63
2023/01/18 07:20:59;;;;;;;18.42;5.28;;;17.20;62.80;;;;;;5031222;28;20198;-61
2023/01/18 07:23:47;;;;;;;24.83;4.93;;;17.20;63.40;;;;;;5031002;28;20560;-61
2023/01/18 07:26:35;;;;;;;14.82;4.82;;;17.10;64.80;;;;;;5030879;28;20198;-61
2023/01/18 07:29:23;;;;;;;20.15;6.63;;;17.20;64.80;;;;;;5031331;28;20218;-63
2023/01/18 07:32:12;;;;;;;18.38;5.20;;;17.10;64.70;;;;;;5031374;28;20218;-60
2023/01/18 07:35:00;;;;;;;14.15;5.78;;;17.00;65.50;;;;;;5032286;28;20293;-64
2023/01/18 07:37:51;;;;;;;19.17;4.90;;;17.00;64.10;;;;;;5031370;28;20287;-61
2023/01/18 07:40:39;;;;;;;25.58;5.32;;;17.00;65.80;;;;;;5031738;28;20202;-61
2023/01/18 07:43:27;;;;;;;25.50;6.50;;;17.00;65.80;;;;;;5032285;28;20252;-63
2023/01/18 07:46:19;;;;;;;20.88;5.80;;;17.00;66.90;;;;;;5032015;28;20289;-61
2023/01/18 07:49:08;;;;;;;36.33;6.65;;;17.10;66.90;;;;;;5031690;28;20595;-64
2023/01/18 07:51:57;;;;;;;48.58;8.38;;;17.20;66.90;;;;;;5032110;28;20221;-61
2023/01/18 07:54:45;;;;;;;61.83;8.93;;;17.30;66.70;;;;;;5031678;28;20300;-62
2023/01/18 07:57:33;;;;;;;106.80;12.55;;;17.40;66.60;;;;;;5031807;28;20368;-60
2023/01/18 08:00:22;;;;;;;176.30;17.65;;;17.50;66.40;;;;;;5031507;28;20208;-62
2023/01/18 08:03:14;;;;;;;79.97;10.77;;;17.50;66.20;;;;;;5031688;28;20292;-62
2023/01/18 08:06:06;;;;;;;127.18;15.10;;;17.60;66.00;;;;;;5032345;28;20278;-60
2023/01/18 08:08:55;;;;;;;46.00;8.90;;;17.70;65.80;;;;;;5031384;28;20230;-60
2023/01/18 08:11:43;;;;;;;33.60;8.27;;;17.70;65.60;;;;;;5031160;28;20277;-61
2023/01/18 08:14:31;;;;;;;22.55;5.75;;;17.80;65.50;;;;;;5030933;28;20287;-61
2023/01/18 08:17:19;;;;;;;34.95;8.32;;;17.70;64.40;;;;;;5031489;28;20280;-60
2023/01/18 08:20:08;;;;;;;38.92;7.70;;;17.80;64.10;;;;;;5031829;28;20281;-61
2023/01/18 08:22:59;;;;;;;39.53;7.15;;;17.80;64.50;;;;;;5031821;28;20285;-63
2023/01/18 08:25:48;;;;;;;43.67;7.95;;;17.80;65.50;;;;;;5030808;28;20667;-61
2023/01/18 08:28:36;;;;;;;43.38;7.72;;;17.70;64.80;;;;;;5030980;28;20222;-61
2023/01/18 08:31:24;;;;;;;36.92;7.53;;;17.70;65.00;;;;;;5031743;28;20740;-60
2023/01/18 08:34:12;;;;;;;30.92;5.93;;;17.70;63.60;;;;;;5029123;28;20218;-61
2023/01/18 08:37:01;;;;;;;31.13;7.43;;;17.70;64.90;;;;;;5030146;28;20637;-63
2023/01/18 08:39:50;;;;;;;31.25;6.30;;;17.70;65.30;;;;;;5031649;28;20245;-60
2023/01/18 08:42:38;;;;;;;40.28;7.78;;;17.70;65.40;;;;;;5030932;28;20324;-62
2023/01/18 08:45:26;;;;;;;32.13;6.40;;;17.60;65.30;;;;;;5031109;28;20201;-62
2023/01/18 08:48:14;;;;;;;43.67;7.20;;;17.60;65.20;;;;;;5031964;28;20310;-60
2023/01/18 08:51:03;;;;;;;37.20;8.00;;;17.60;65.00;;;;;;5035738;28;20264;-61
2023/01/18 08:53:53;;;;;;;27.35;6.32;;;17.60;65.40;;;;;;5037499;28;20249;-61
2023/01/18 08:56:42;;;;;;;22.75;6.10;;;17.50;65.20;;;;;;5036607;28;20209;-61
2023/01/18 08:59:30;;;;;;;40.63;6.57;;;17.50;65.40;;;;;;5035033;28;20272;-62
2023/01/18 09:02:18;;;;;;;35.15;7.18;;;17.50;65.70;;;;;;5038551;28;20206;-61
2023/01/18 09:05:07;;;;;;;39.65;6.70;;;17.50;65.70;;;;;;5037647;28;20686;-60
2023/01/18 09:07:56;;;;;;;26.63;5.90;;;17.40;65.20;;;;;;5037558;28;20256;-60
2023/01/18 09:10:45;;;;;;;27.85;6.03;;;17.40;65.30;;;;;;5037193;28;20245;-61
2023/01/18 09:13:34;;;;;;;24.25;6.43;;;17.40;66.80;;;;;;5035413;28;20272;-61
2023/01/18 09:16:23;;;;;;;22.35;6.00;;;17.30;67.10;;;;;;5036983;28;20198;-63
2023/01/18 09:19:11;;;;;;;23.52;5.35;;;17.40;67.30;;;;;;5037403;28;20922;-62
2023/01/18 09:21:59;;;;;;;26.15;5.80;;;17.50;67.60;;;;;;5037067;28;20243;-61
2023/01/18 09:24:47;;;;;;;20.83;5.43;;;17.60;67.40;;;;;;5036125;28;20194;-62
2023/01/18 09:27:35;;;;;;;24.40;5.72;;;17.60;66.90;;;;;;5036112;28;20308;-63
2023/01/18 09:30:25;;;;;;;36.78;6.05;;;17.60;66.70;;;;;;5036946;28;20220;-62
2023/01/18 09:33:13;;;;;;;32.33;7.13;;;17.70;66.70;;;;;;5017423;28;20256;-61
2023/01/18 09:36:02;;;;;;;1231.53;192.57;;;17.70;66.70;;;;;;5024532;28;20292;-65
2023/01/18 09:38:51;;;;;;;637.30;79.78;;;17.80;66.80;;;;;;5037047;28;20780;-62
2023/01/18 09:41:41;;;;;;;408.95;48.85;;;17.90;66.90;;;;;;5038127;28;20281;-60
2023/01/18 09:44:33;;;;;;;293.42;33.85;;;18.00;67.00;;;;;;5037622;28;20682;-60
2023/01/18 09:47:25;;;;;;;211.85;27.83;;;18.20;67.10;;;;;;5037496;28;20309;-62
2023/01/18 09:50:15;;;;;;;151.20;22.02;;;18.20;66.70;;;;;;5037867;28;20198;-60
2023/01/18 09:53:16;;;;;;;137.25;21.67;;;18.40;66.60;;;;;;5037021;28;20249;-64
2023/01/18 09:56:11;;;;;;;123.90;17.90;;;18.60;66.50;;;;;;5035074;28;20233;-64
2023/01/18 09:59:10;;;;;;;98.75;15.65;;;18.70;66.10;;;;;;5034238;28;20272;-60
2023/01/18 10:02:01;;;;;;;90.22;14.77;;;18.90;65.70;;;;;;5035742;28;20210;-64
2023/01/18 10:04:54;;;;;;;72.75;12.88;;;19.00;65.40;;;;;;5030537;28;20564;-65
2023/01/18 10:07:50;;;;;;;78.13;13.88;;;19.10;65.20;;;;;;5033842;28;20321;-64
2023/01/18 10:10:42;;;;;;;84.45;14.18;;;19.20;64.80;;;;;;5033021;28;20328;-61
2023/01/18 10:13:42;;;;;;;80.70;11.70;;;19.30;64.50;;;;;;5031272;28;20213;-63
2023/01/18 10:16:32;;;;;;;70.03;12.55;;;19.50;70.00;;;;;;5047222;23;21232;-60
2023/01/18 10:19:26;;;;;;;72.40;13.82;;;19.50;65.30;;;;;;5072941;28;20327;-60
2023/01/18 10:22:22;;;;;;;79.30;10.68;;;19.60;64.70;;;;;;5073213;28;20322;-61
2023/01/18 10:25:15;;;;;;;49.33;11.40;;;19.60;64.40;;;;;;5073009;28;20278;-60
2023/01/18 10:28:23;;;;;;;61.50;10.40;;;19.70;64.20;;;;;;5054747;28;20275;-60
2023/01/18 10:31:22;;;;;;;438.15;55.28;;;19.70;63.90;;;;;;5053169;28;20844;-60
2023/01/18 10:34:16;;;;;;;189.05;27.25;;;19.80;63.90;;;;;;5053314;28;20228;-60
2023/01/18 10:37:13;;;;;;;94.43;16.10;;;19.90;64.10;;;;;;5052121;28;20226;-60
2023/01/18 10:40:04;;;;;;;81.93;12.60;;;19.90;63.80;;;;;;5054101;28;20213;-60
2023/01/18 10:42:58;;;;;;;52.28;9.88;;;20.00;63.60;;;;;;5053722;28;20210;-60
2023/01/18 10:45:47;;;;;;;55.20;10.82;;;20.10;63.50;;;;;;5054162;28;20326;-60
2023/01/18 10:48:35;;;;;;;53.20;10.25;;;20.10;63.30;;;;;;5054225;28;20233;-60
2023/01/18 10:51:30;;;;;;;43.83;9.75;;;20.20;63.60;;;;;;5053084;28;20209;-60
2023/01/18 10:54:25;;;;;;;49.78;9.07;;;20.30;63.40;;;;;;5053405;28;20304;-61
2023/01/18 10:57:21;;;;;;;54.45;8.02;;;20.30;63.20;;;;;;5054144;28;20233;-61
2023/01/18 11:00:20;;;;;;;32.15;8.93;;;20.40;63.30;;;;;;5051736;28;20692;-60
2023/01/18 11:03:14;;;;;;;48.50;10.38;;;20.40;63.10;;;;;;5053711;28;20248;-60
2023/01/18 11:06:05;;;;;;;50.17;7.78;;;20.50;62.30;;;;;;5053740;28;20308;-60
2023/01/18 11:08:54;;;;;;;38.58;7.57;;;20.40;62.80;;;;;;5052207;28;20201;-60
2023/01/18 11:14:49;;;;;;;43.55;8.45;;;20.50;62.50;;;;;;5052769;28;20307;-61
2023/01/18 11:17:37;;;;;;;48.00;8.05;;;20.50;62.50;;;;;;5052869;28;20331;-60
2023/01/18 11:20:32;;;;;;;38.95;7.20;;;20.50;62.60;;;;;;5053461;28;20261;-60
2023/01/18 11:23:24;;;;;;;54.50;8.32;;;20.50;62.60;;;;;;5053585;28;20291;-60
2023/01/18 11:26:16;;;;;;;32.65;7.15;;;20.50;66.50;;;;;;5053547;28;20276;-60
2023/01/18 11:29:06;;;;;;;43.38;8.10;;;20.60;62.00;;;;;;5053270;28;20267;-61
2023/01/18 11:32:00;;;;;;;37.72;6.65;;;20.70;62.30;;;;;;5052206;28;20280;-61
2023/01/18 11:34:51;;;;;;;40.72;6.95;;;20.60;62.10;;;;;;5050729;28;20295;-61
2023/01/18 11:37:42;;;;;;;34.55;7.00;;;20.60;62.30;;;;;;5051129;28;20308;-60
2023/01/18 11:40:31;;;;;;;27.40;6.50;;;20.70;62.20;;;;;;5052305;28;20239;-60
2023/01/18 11:43:22;;;;;;;28.13;6.30;;;20.80;62.20;;;;;;5051928;28;20288;-61
2023/01/18 11:46:31;;;;;;;34.85;7.40;;;20.70;61.80;;;;;;5052019;28;20319;-60
2023/01/18 11:49:36;;;;;;;16.67;5.30;;;20.90;62.30;;;;;;5051474;28;20201;-61
2023/01/18 11:52:37;;;;;;;30.23;7.72;;;20.90;62.20;;;;;;5051384;28;20207;-61
2023/01/18 11:55:31;;;;;;;13.05;5.00;;;20.90;62.20;;;;;;5052151;28;20228;-60
2023/01/18 11:58:24;;;;;;;24.35;5.78;;;20.90;62.20;;;;;;5051964;28;20217;-60
2023/01/18 12:01:36;;;;;;;21.33;5.93;;;21.00;62.30;;;;;;5039605;28;20288;-60
2023/01/18 12:04:38;;;;;;;15.95;5.15;;;21.00;62.10;;;;;;5051015;28;20243;-61
2023/01/18 12:07:39;;;;;;;30.13;6.05;;;21.00;62.20;;;;;;5051544;28;20221;-61
2023/01/18 12:10:32;;;;;;;15.73;5.25;;;21.00;62.10;;;;;;5051582;28;20252;-61
2023/01/18 12:13:34;;;;;;;20.30;5.68;;;21.00;62.10;;;;;;5030508;28;20279;-61
2023/01/18 12:16:34;;;;;;;22.30;4.85;;;21.10;62.20;;;;;;5030224;28;20705;-61
2023/01/18 12:19:47;;;;;;;29.05;7.00;;;21.10;62.10;;;;;;5039103;28;20688;-62
2023/01/18 12:23:08;;;;;;;25.05;5.70;;;21.10;62.10;;;;;;5048203;28;20204;-61
2023/01/18 12:26:16;;;;;;;18.45;5.80;;;21.10;61.90;;;;;;5047366;28;20224;-62
2023/01/18 12:29:16;;;;;;;28.33;5.57;;;21.20;62.00;;;;;;5050767;28;20241;-62
2023/01/18 12:32:19;;;;;;;22.35;5.07;;;21.20;61.80;;;;;;5050615;28;20205;-62
2023/01/18 12:35:27;;;;;;;25.30;6.75;;;21.10;61.70;;;;;;5049860;28;20266;-61
2023/01/18 12:38:21;;;;;;;26.98;5.38;;;21.20;61.80;;;;;;5051709;28;20303;-62
2023/01/18 12:41:33;;;;;;;15.57;4.68;;;21.20;61.70;;;;;;5050999;28;20209;-61
2023/01/18 12:44:33;;;;;;;17.83;5.30;;;21.20;61.60;;;;;;5050520;28;20276;-61
2023/01/18 12:47:33;;;;;;;27.02;5.93;;;21.20;61.60;;;;;;5049698;28;20266;-61
2023/01/18 12:50:26;;;;;;;24.40;6.28;;;21.20;61.50;;;;;;5049293;28;20201;-61
2023/01/18 12:53:19;;;;;;;22.60;7.18;;;21.20;61.60;;;;;;5050804;28;20205;-61
2023/01/18 12:56:14;;;;;;;19.33;6.00;;;21.40;61.50;;;;;;5048894;28;20649;-60
2023/01/18 12:59:06;;;;;;;28.92;5.43;;;21.20;61.50;;;;;;5050063;28;20367;-61
2023/01/18 13:01:59;;;;;;;23.08;5.70;;;21.20;61.40;;;;;;5050522;28;20206;-60
2023/01/18 13:04:53;;;;;;;28.00;7.15;;;21.30;61.40;;;;;;5049471;28;20665;-62
2023/01/18 13:07:46;;;;;;;28.75;6.82;;;21.30;61.40;;;;;;5049450;28;20816;-62
2023/01/18 13:10:36;;;;;;;33.30;7.95;;;21.30;61.30;;;;;;5048863;28;20280;-61
2023/01/18 13:13:27;;;;;;;33.60;7.95;;;21.20;61.20;;;;;;5049803;28;20271;-60
2023/01/18 13:16:25;;;;;;;30.98;5.95;;;20.90;65.30;;;;;;5049359;28;20217;-61
2023/01/18 13:19:19;;;;;;;24.88;5.60;;;21.20;61.30;;;;;;5048958;28;20684;-60
2023/01/18 13:22:14;;;;;;;42.17;6.85;;;21.20;61.20;;;;;;5049932;28;20294;-61
2023/01/18 13:25:34;;;;;;;16.40;6.03;;;21.20;61.30;;;;;;5048322;28;20284;-61
2023/01/18 13:28:24;;;;;;;20.83;5.85;;;21.10;61.30;;;;;;5049204;28;20213;-61
2023/01/18 13:31:13;;;;;;;20.70;6.00;;;21.00;61.40;;;;;;5048326;28;20255;-62
2023/01/18 13:34:02;;;;;;;20.13;4.60;;;20.90;61.50;;;;;;5050372;28;20198;-61
2023/01/18 13:36:50;;;;;;;21.02;5.68;;;20.90;61.80;;;;;;5050140;28;20227;-61
2023/01/18 13:39:46;;;;;;;21.80;6.13;;;20.80;61.90;;;;;;5052167;28;20193;-61
2023/01/18 13:42:37;;;;;;;20.23;6.20;;;20.80;62.50;;;;;;5053862;28;20194;-61
2023/01/18 13:45:27;;;;;;;18.42;4.65;;;20.80;62.00;;;;;;5053311;28;20201;-61
2023/01/18 13:48:40;;;;;;;22.25;5.95;;;20.90;62.30;;;;;;5053963;28;20588;-61
2023/01/18 13:51:51;;;;;;;33.28;6.72;;;21.00;62.20;;;;;;5054009;28;20197;-61
2023/01/18 13:55:05;;;;;;;22.80;6.18;;;21.00;61.90;;;;;;5053343;28;20312;-61
2023/01/18 13:57:55;;;;;;;205.73;31.60;;;21.10;62.00;;;;;;5053556;28;20221;-61
2023/01/18 14:00:47;;;;;;;134.55;20.27;;;21.10;62.00;;;;;;5053618;28;20251;-61
2023/01/18 14:03:39;;;;;;;77.47;13.90;;;21.10;61.20;;;;;;5053036;28;20614;-60
2023/01/18 14:06:33;;;;;;;51.40;9.95;;;21.10;61.90;;;;;;5050881;28;20256;-61
2023/01/18 14:09:37;;;;;;;59.22;10.65;;;21.20;61.80;;;;;;5052437;28;20255;-60
2023/01/18 14:12:48;;;;;;;57.70;9.77;;;21.10;61.70;;;;;;5053677;28;20209;-60
2023/01/18 14:15:50;;;;;;;20.08;6.18;;;21.10;61.60;;;;;;5052951;28;20332;-60
2023/01/18 14:18:48;;;;;;;27.95;5.53;;;21.10;61.60;;;;;;5054127;28;20233;-60
2023/01/18 14:21:51;;;;;;;25.88;4.97;;;21.00;61.60;;;;;;5053337;28;20668;-60
2023/01/18 14:24:58;;;;;;;18.50;5.38;;;21.00;61.60;;;;;;5053039;28;20196;-62
2023/01/18 14:27:50;;;;;;;18.13;4.80;;;21.00;61.90;;;;;;5052037;28;20658;-60
2023/01/18 14:30:40;;;;;;;25.10;5.72;;;20.90;61.90;;;;;;5051746;28;20233;-60
2023/01/18 14:33:32;;;;;;;22.00;5.57;;;21.00;62.20;;;;;;5054062;28;20197;-60
2023/01/18 14:36:22;;;;;;;25.95;4.55;;;20.90;66.70;;;;;;5051907;28;20300;-60
2023/01/18 14:39:16;;;;;;;24.25;4.40;;;21.10;62.00;;;;;;5052910;28;20205;-62
2023/01/18 14:42:05;;;;;;;22.55;4.93;;;21.10;62.10;;;;;;5049447;28;20205;-60
2023/01/18 14:44:54;;;;;;;16.70;4.35;;;21.20;61.70;;;;;;5049051;28;20201;-60
2023/01/18 14:47:47;;;;;;;19.95;3.63;;;21.30;61.80;;;;;;5051359;28;20226;-61
2023/01/18 14:50:44;;;;;;;22.00;5.05;;;21.20;61.70;;;;;;5051234;28;20256;-59
2023/01/18 14:53:37;;;;;;;16.88;4.45;;;21.20;61.50;;;;;;5052273;28;20588;-60
2023/01/18 14:56:26;;;;;;;11.75;4.43;;;21.20;61.60;;;;;;5052642;28;20633;-60
2023/01/18 14:59:20;;;;;;;18.92;4.60;;;21.20;61.40;;;;;;5050284;28;20260;-60
2023/01/18 15:02:17;;;;;;;14.20;3.50;;;21.20;61.30;;;;;;5052819;28;20245;-60
2023/01/18 15:05:12;;;;;;;17.85;4.63;;;21.20;61.20;;;;;;5054056;28;20201;-60
2023/01/18 15:08:02;;;;;;;17.10;3.60;;;21.30;61.40;;;;;;5053200;28;20304;-60
2023/01/18 15:10:50;;;;;;;9.23;3.78;;;21.30;61.20;;;;;;5053464;28;20209;-60
2023/01/18 15:13:49;;;;;;;11.98;4.13;;;21.30;61.40;;;;;;5053520;28;20209;-60
2023/01/18 15:16:37;;;;;;;16.42;4.13;;;21.30;61.40;;;;;;5051903;28;20717;-60
2023/01/18 15:19:33;;;;;;;9.85;4.65;;;21.30;61.30;;;;;;5053174;28;20792;-60
2023/01/18 15:22:28;;;;;;;12.05;3.97;;;21.30;61.20;;;;;;5053516;28;20313;-60